Terminal Aerodrome Forecast
Issued by NWS Charleston, WV

Current Version | Previous Version | Graphics & Text | Print | Product List | Glossary On
Versions: 1 2 3 4 5 6 7 8 9 10 11 12 13 14 15 16 17 18 19 20 21 22 23 24 25
000
FTUS41 KRLX 162300
TAFCRW
TAF
KCRW 162329Z 1700/1724 00000KT P6SM SCT050
     FM170400 00000KT 6SM BR SCT120
     FM170500 00000KT 3SM BR SCT200
     FM170700 00000KT 1/2SM FG BKN001
     FM171300 00000KT 2SM BR FEW001 FEW040
     FM171400 00000KT P6SM FEW040=

USA.gov is the U.S. government's official web portal to all federal, state and local government web resources and services.